sensor_id;sensor_type;location;lat;lon;timestamp;P1;durP1;ratioP1;P2;durP2;ratioP2
51810;SDS011;52468;40.116;18.296;2023-05-16T00:00:53;48.50;;;14.47;;
51810;SDS011;52468;40.116;18.296;2023-05-16T00:03:22;37.67;;;10.90;;
51810;SDS011;52468;40.116;18.296;2023-05-16T00:05:50;50.40;;;13.60;;
51810;SDS011;52468;40.116;18.296;2023-05-16T00:08:18;35.10;;;12.57;;
51810;SDS011;52468;40.116;18.296;2023-05-16T00:10:45;36.23;;;13.07;;
51810;SDS011;52468;40.116;18.296;2023-05-16T00:13:13;28.97;;;11.50;;
51810;SDS011;52468;40.116;18.296;2023-05-16T00:15:41;50.93;;;14.10;;
51810;SDS011;52468;40.116;18.296;2023-05-16T00:18:10;40.77;;;12.10;;
51810;SDS011;52468;40.116;18.296;2023-05-16T00:20:41;47.60;;;12.43;;
51810;SDS011;52468;40.116;18.296;2023-05-16T00:23:09;60.27;;;14.80;;
51810;SDS011;52468;40.116;18.296;2023-05-16T00:25:39;46.83;;;14.27;;
51810;SDS011;52468;40.116;18.296;2023-05-16T00:28:06;38.37;;;13.53;;
51810;SDS011;52468;40.116;18.296;2023-05-16T00:30:35;52.20;;;13.87;;
51810;SDS011;52468;40.116;18.296;2023-05-16T00:33:03;39.33;;;14.33;;
51810;SDS011;52468;40.116;18.296;2023-05-16T00:35:31;37.63;;;11.80;;
51810;SDS011;52468;40.116;18.296;2023-05-16T00:37:59;45.70;;;16.53;;
51810;SDS011;52468;40.116;18.296;2023-05-16T00:40:27;41.83;;;14.47;;
51810;SDS011;52468;40.116;18.296;2023-05-16T00:42:55;60.30;;;15.60;;
51810;SDS011;52468;40.116;18.296;2023-05-16T00:45:23;37.17;;;13.20;;
51810;SDS011;52468;40.116;18.296;2023-05-16T00:47:51;38.27;;;13.07;;
51810;SDS011;52468;40.116;18.296;2023-05-16T00:50:19;50.73;;;14.03;;
51810;SDS011;52468;40.116;18.296;2023-05-16T00:52:47;40.57;;;14.37;;
51810;SDS011;52468;40.116;18.296;2023-05-16T00:55:15;28.67;;;10.90;;
51810;SDS011;52468;40.116;18.296;2023-05-16T00:57:43;67.50;;;13.40;;
51810;SDS011;52468;40.116;18.296;2023-05-16T01:00:11;39.50;;;11.27;;
51810;SDS011;52468;40.116;18.296;2023-05-16T01:02:41;41.37;;;12.00;;
51810;SDS011;52468;40.116;18.296;2023-05-16T01:05:10;39.57;;;13.63;;
51810;SDS011;52468;40.116;18.296;2023-05-16T01:07:39;34.90;;;10.63;;
51810;SDS011;52468;40.116;18.296;2023-05-16T01:10:07;43.80;;;12.20;;
51810;SDS011;52468;40.116;18.296;2023-05-16T01:12:52;37.13;;;12.13;;
51810;SDS011;52468;40.116;18.296;2023-05-16T01:15:38;34.50;;;13.47;;
51810;SDS011;52468;40.116;18.296;2023-05-16T01:18:18;35.93;;;9.93;;
51810;SDS011;52468;40.116;18.296;2023-05-16T01:21:04;40.97;;;10.93;;
51810;SDS011;52468;40.116;18.296;2023-05-16T01:26:26;24.50;;;9.30;;
51810;SDS011;52468;40.116;18.296;2023-05-16T01:28:54;33.77;;;9.27;;
51810;SDS011;52468;40.116;18.296;2023-05-16T01:31:22;33.30;;;8.43;;
51810;SDS011;52468;40.116;18.296;2023-05-16T01:33:50;26.27;;;6.47;;
51810;SDS011;52468;40.116;18.296;2023-05-16T01:39:12;23.27;;;6.17;;
51810;SDS011;52468;40.116;18.296;2023-05-16T01:41:50;25.53;;;7.43;;
51810;SDS011;52468;40.116;18.296;2023-05-16T01:44:44;22.90;;;6.72;;
51810;SDS011;52468;40.116;18.296;2023-05-16T01:47:33;24.27;;;6.53;;
51810;SDS011;52468;40.116;18.296;2023-05-16T01:50:14;18.30;;;4.47;;
51810;SDS011;52468;40.116;18.296;2023-05-16T01:55:22;21.33;;;6.23;;
51810;SDS011;52468;40.116;18.296;2023-05-16T01:57:58;18.40;;;4.67;;
51810;SDS011;52468;40.116;18.296;2023-05-16T02:00:29;13.43;;;4.47;;
51810;SDS011;52468;40.116;18.296;2023-05-16T02:02:59;13.70;;;5.03;;
51810;SDS011;52468;40.116;18.296;2023-05-16T02:05:27;15.90;;;4.37;;
51810;SDS011;52468;40.116;18.296;2023-05-16T02:07:54;15.00;;;5.03;;
51810;SDS011;52468;40.116;18.296;2023-05-16T02:10:23;25.10;;;5.53;;
51810;SDS011;52468;40.116;18.296;2023-05-16T02:12:51;19.80;;;5.93;;
51810;SDS011;52468;40.116;18.296;2023-05-16T02:15:19;15.97;;;5.23;;
51810;SDS011;52468;40.116;18.296;2023-05-16T02:17:47;22.73;;;6.17;;
51810;SDS011;52468;40.116;18.296;2023-05-16T02:20:15;12.43;;;4.70;;
51810;SDS011;52468;40.116;18.296;2023-05-16T02:22:43;17.33;;;5.00;;
51810;SDS011;52468;40.116;18.296;2023-05-16T02:25:13;11.60;;;5.30;;
51810;SDS011;52468;40.116;18.296;2023-05-16T02:27:42;11.47;;;4.80;;
51810;SDS011;52468;40.116;18.296;2023-05-16T02:30:10;11.73;;;3.33;;
51810;SDS011;52468;40.116;18.296;2023-05-16T02:32:38;11.03;;;3.87;;
51810;SDS011;52468;40.116;18.296;2023-05-16T02:35:07;17.50;;;3.17;;
51810;SDS011;52468;40.116;18.296;2023-05-16T02:37:35;19.40;;;5.87;;
51810;SDS011;52468;40.116;18.296;2023-05-16T02:40:03;19.87;;;5.47;;
51810;SDS011;52468;40.116;18.296;2023-05-16T02:42:32;15.23;;;4.20;;
51810;SDS011;52468;40.116;18.296;2023-05-16T02:45:00;23.10;;;4.93;;
51810;SDS011;52468;40.116;18.296;2023-05-16T02:47:29;12.33;;;4.23;;
51810;SDS011;52468;40.116;18.296;2023-05-16T02:49:59;20.77;;;6.63;;
51810;SDS011;52468;40.116;18.296;2023-05-16T02:52:26;15.30;;;5.00;;
51810;SDS011;52468;40.116;18.296;2023-05-16T02:54:54;16.90;;;5.13;;
51810;SDS011;52468;40.116;18.296;2023-05-16T02:57:30;13.30;;;4.20;;
51810;SDS011;52468;40.116;18.296;2023-05-16T02:59:58;19.30;;;5.70;;
51810;SDS011;52468;40.116;18.296;2023-05-16T03:02:26;18.00;;;7.07;;
51810;SDS011;52468;40.116;18.296;2023-05-16T03:04:54;24.27;;;5.37;;
51810;SDS011;52468;40.116;18.296;2023-05-16T03:07:22;10.27;;;4.03;;
51810;SDS011;52468;40.116;18.296;2023-05-16T03:09:50;16.43;;;4.97;;
51810;SDS011;52468;40.116;18.296;2023-05-16T03:12:18;12.10;;;3.70;;
51810;SDS011;52468;40.116;18.296;2023-05-16T03:14:45;19.07;;;3.47;;
51810;SDS011;52468;40.116;18.296;2023-05-16T03:17:13;14.67;;;5.00;;
51810;SDS011;52468;40.116;18.296;2023-05-16T03:19:41;10.90;;;3.90;;
51810;SDS011;52468;40.116;18.296;2023-05-16T03:22:09;11.03;;;2.93;;
51810;SDS011;52468;40.116;18.296;2023-05-16T03:24:37;15.17;;;4.60;;
51810;SDS011;52468;40.116;18.296;2023-05-16T03:27:05;14.07;;;5.40;;
51810;SDS011;52468;40.116;18.296;2023-05-16T03:29:32;12.83;;;3.53;;
51810;SDS011;52468;40.116;18.296;2023-05-16T03:32:01;20.33;;;4.00;;
51810;SDS011;52468;40.116;18.296;2023-05-16T03:34:29;20.90;;;5.70;;
51810;SDS011;52468;40.116;18.296;2023-05-16T03:36:57;13.43;;;5.27;;
51810;SDS011;52468;40.116;18.296;2023-05-16T03:39:25;15.20;;;4.63;;
51810;SDS011;52468;40.116;18.296;2023-05-16T03:41:53;9.97;;;4.70;;
51810;SDS011;52468;40.116;18.296;2023-05-16T03:44:23;16.57;;;5.63;;
51810;SDS011;52468;40.116;18.296;2023-05-16T03:46:51;14.23;;;4.23;;
51810;SDS011;52468;40.116;18.296;2023-05-16T03:49:23;12.57;;;3.20;;
51810;SDS011;52468;40.116;18.296;2023-05-16T03:51:56;12.30;;;4.97;;
51810;SDS011;52468;40.116;18.296;2023-05-16T03:54:24;28.17;;;5.23;;
51810;SDS011;52468;40.116;18.296;2023-05-16T03:56:52;12.73;;;3.17;;
51810;SDS011;52468;40.116;18.296;2023-05-16T03:59:20;13.50;;;4.20;;
51810;SDS011;52468;40.116;18.296;2023-05-16T04:01:48;18.20;;;5.53;;
51810;SDS011;52468;40.116;18.296;2023-05-16T04:04:16;16.30;;;5.70;;
51810;SDS011;52468;40.116;18.296;2023-05-16T04:06:44;14.13;;;3.93;;
51810;SDS011;52468;40.116;18.296;2023-05-16T04:09:12;14.90;;;3.20;;
51810;SDS011;52468;40.116;18.296;2023-05-16T04:11:40;8.83;;;4.73;;
51810;SDS011;52468;40.116;18.296;2023-05-16T04:14:08;10.47;;;3.63;;
51810;SDS011;52468;40.116;18.296;2023-05-16T04:16:35;8.93;;;4.97;;
51810;SDS011;52468;40.116;18.296;2023-05-16T04:19:03;13.10;;;4.53;;
51810;SDS011;52468;40.116;18.296;2023-05-16T04:21:31;16.37;;;5.27;;
51810;SDS011;52468;40.116;18.296;2023-05-16T04:23:59;10.73;;;4.27;;
51810;SDS011;52468;40.116;18.296;2023-05-16T04:26:27;17.80;;;5.13;;
51810;SDS011;52468;40.116;18.296;2023-05-16T04:28:56;24.23;;;4.67;;
51810;SDS011;52468;40.116;18.296;2023-05-16T04:31:25;17.43;;;5.23;;
51810;SDS011;52468;40.116;18.296;2023-05-16T04:33:52;6.47;;;3.97;;
51810;SDS011;52468;40.116;18.296;2023-05-16T04:36:20;10.80;;;3.17;;
51810;SDS011;52468;40.116;18.296;2023-05-16T04:38:48;23.33;;;3.30;;
51810;SDS011;52468;40.116;18.296;2023-05-16T04:41:16;16.70;;;3.30;;
51810;SDS011;52468;40.116;18.296;2023-05-16T04:43:44;14.17;;;3.63;;
51810;SDS011;52468;40.116;18.296;2023-05-16T04:46:11;22.80;;;5.53;;
51810;SDS011;52468;40.116;18.296;2023-05-16T04:48:41;14.20;;;3.27;;
51810;SDS011;52468;40.116;18.296;2023-05-16T04:51:09;13.33;;;2.73;;
51810;SDS011;52468;40.116;18.296;2023-05-16T04:53:38;13.07;;;3.67;;
51810;SDS011;52468;40.116;18.296;2023-05-16T04:56:05;20.23;;;4.00;;
51810;SDS011;52468;40.116;18.296;2023-05-16T04:58:34;13.67;;;4.23;;
51810;SDS011;52468;40.116;18.296;2023-05-16T05:01:01;10.70;;;4.00;;
51810;SDS011;52468;40.116;18.296;2023-05-16T05:03:30;20.17;;;3.63;;
51810;SDS011;52468;40.116;18.296;2023-05-16T05:05:57;12.07;;;3.80;;
51810;SDS011;52468;40.116;18.296;2023-05-16T05:08:25;13.03;;;3.73;;
51810;SDS011;52468;40.116;18.296;2023-05-16T05:10:54;9.43;;;3.97;;
51810;SDS011;52468;40.116;18.296;2023-05-16T05:13:22;16.43;;;4.47;;
51810;SDS011;52468;40.116;18.296;2023-05-16T05:15:50;12.57;;;3.77;;
51810;SDS011;52468;40.116;18.296;2023-05-16T05:18:18;11.10;;;2.80;;
51810;SDS011;52468;40.116;18.296;2023-05-16T05:20:46;19.70;;;3.63;;
51810;SDS011;52468;40.116;18.296;2023-05-16T05:23:14;16.67;;;4.10;;
51810;SDS011;52468;40.116;18.296;2023-05-16T05:25:42;14.43;;;3.87;;
51810;SDS011;52468;40.116;18.296;2023-05-16T05:28:09;19.13;;;4.10;;
51810;SDS011;52468;40.116;18.296;2023-05-16T05:30:38;13.30;;;4.43;;
51810;SDS011;52468;40.116;18.296;2023-05-16T05:33:07;18.33;;;4.10;;
51810;SDS011;52468;40.116;18.296;2023-05-16T05:35:37;13.53;;;4.37;;
51810;SDS011;52468;40.116;18.296;2023-05-16T05:38:04;14.13;;;4.43;;
51810;SDS011;52468;40.116;18.296;2023-05-16T05:40:32;9.83;;;2.83;;
51810;SDS011;52468;40.116;18.296;2023-05-16T05:43:00;6.90;;;3.03;;
51810;SDS011;52468;40.116;18.296;2023-05-16T05:45:28;17.20;;;4.13;;
51810;SDS011;52468;40.116;18.296;2023-05-16T05:47:56;12.50;;;3.03;;
51810;SDS011;52468;40.116;18.296;2023-05-16T05:50:24;8.67;;;3.50;;
51810;SDS011;52468;40.116;18.296;2023-05-16T05:52:52;9.60;;;2.77;;
51810;SDS011;52468;40.116;18.296;2023-05-16T05:55:21;12.93;;;3.13;;
51810;SDS011;52468;40.116;18.296;2023-05-16T05:57:49;15.47;;;3.40;;
51810;SDS011;52468;40.116;18.296;2023-05-16T06:00:16;18.00;;;4.17;;
51810;SDS011;52468;40.116;18.296;2023-05-16T06:02:45;10.53;;;3.30;;
51810;SDS011;52468;40.116;18.296;2023-05-16T06:05:13;15.50;;;3.93;;
51810;SDS011;52468;40.116;18.296;2023-05-16T06:07:41;11.83;;;3.77;;
51810;SDS011;52468;40.116;18.296;2023-05-16T06:10:09;12.30;;;5.00;;
51810;SDS011;52468;40.116;18.296;2023-05-16T06:12:37;9.93;;;3.80;;
51810;SDS011;52468;40.116;18.296;2023-05-16T06:15:05;9.10;;;2.80;;
51810;SDS011;52468;40.116;18.296;2023-05-16T06:17:33;16.13;;;3.63;;
51810;SDS011;52468;40.116;18.296;2023-05-16T06:20:01;18.03;;;4.00;;
51810;SDS011;52468;40.116;18.296;2023-05-16T06:22:30;10.00;;;3.20;;
51810;SDS011;52468;40.116;18.296;2023-05-16T06:24:57;13.00;;;4.17;;
51810;SDS011;52468;40.116;18.296;2023-05-16T06:27:25;10.37;;;3.90;;
51810;SDS011;52468;40.116;18.296;2023-05-16T06:29:53;16.37;;;4.63;;
51810;SDS011;52468;40.116;18.296;2023-05-16T06:32:21;14.13;;;3.67;;
51810;SDS011;52468;40.116;18.296;2023-05-16T06:34:49;13.67;;;4.20;;
51810;SDS011;52468;40.116;18.296;2023-05-16T06:37:17;18.40;;;5.93;;
51810;SDS011;52468;40.116;18.296;2023-05-16T06:39:45;8.60;;;3.27;;
51810;SDS011;52468;40.116;18.296;2023-05-16T06:42:13;14.70;;;3.80;;
51810;SDS011;52468;40.116;18.296;2023-05-16T06:44:41;15.50;;;4.90;;
51810;SDS011;52468;40.116;18.296;2023-05-16T06:47:09;15.43;;;4.47;;
51810;SDS011;52468;40.116;18.296;2023-05-16T06:49:37;13.10;;;4.87;;
51810;SDS011;52468;40.116;18.296;2023-05-16T06:52:05;14.47;;;4.07;;
51810;SDS011;52468;40.116;18.296;2023-05-16T06:54:33;8.60;;;2.80;;
51810;SDS011;52468;40.116;18.296;2023-05-16T06:57:01;10.47;;;3.83;;
51810;SDS011;52468;40.116;18.296;2023-05-16T06:59:30;10.97;;;3.43;;
51810;SDS011;52468;40.116;18.296;2023-05-16T07:01:58;9.43;;;3.43;;
51810;SDS011;52468;40.116;18.296;2023-05-16T07:04:27;10.37;;;3.33;;
51810;SDS011;52468;40.116;18.296;2023-05-16T07:06:55;10.97;;;3.27;;
51810;SDS011;52468;40.116;18.296;2023-05-16T07:09:23;10.23;;;3.53;;
51810;SDS011;52468;40.116;18.296;2023-05-16T07:11:51;11.47;;;3.00;;
51810;SDS011;52468;40.116;18.296;2023-05-16T07:14:19;6.33;;;3.07;;
51810;SDS011;52468;40.116;18.296;2023-05-16T07:16:46;15.97;;;3.30;;
51810;SDS011;52468;40.116;18.296;2023-05-16T07:19:14;6.53;;;2.97;;
51810;SDS011;52468;40.116;18.296;2023-05-16T07:21:42;12.67;;;3.63;;
51810;SDS011;52468;40.116;18.296;2023-05-16T07:24:10;6.40;;;3.07;;
51810;SDS011;52468;40.116;18.296;2023-05-16T07:26:38;20.57;;;6.43;;
51810;SDS011;52468;40.116;18.296;2023-05-16T07:29:06;12.87;;;4.93;;
51810;SDS011;52468;40.116;18.296;2023-05-16T07:31:34;10.87;;;3.33;;
51810;SDS011;52468;40.116;18.296;2023-05-16T07:34:03;16.23;;;3.27;;
51810;SDS011;52468;40.116;18.296;2023-05-16T07:36:30;8.40;;;3.63;;
51810;SDS011;52468;40.116;18.296;2023-05-16T07:38:59;12.37;;;3.40;;
51810;SDS011;52468;40.116;18.296;2023-05-16T07:41:30;16.53;;;3.73;;
51810;SDS011;52468;40.116;18.296;2023-05-16T07:43:58;18.50;;;4.77;;
51810;SDS011;52468;40.116;18.296;2023-05-16T07:46:25;6.50;;;4.03;;
51810;SDS011;52468;40.116;18.296;2023-05-16T07:48:53;19.43;;;4.90;;
51810;SDS011;52468;40.116;18.296;2023-05-16T07:51:21;9.33;;;2.73;;
51810;SDS011;52468;40.116;18.296;2023-05-16T07:53:49;8.17;;;4.10;;
51810;SDS011;52468;40.116;18.296;2023-05-16T07:56:18;8.17;;;3.40;;
51810;SDS011;52468;40.116;18.296;2023-05-16T07:58:46;13.50;;;2.77;;
51810;SDS011;52468;40.116;18.296;2023-05-16T08:01:15;8.87;;;2.63;;
51810;SDS011;52468;40.116;18.296;2023-05-16T08:03:43;13.70;;;5.30;;
51810;SDS011;52468;40.116;18.296;2023-05-16T08:06:11;12.13;;;3.70;;
51810;SDS011;52468;40.116;18.296;2023-05-16T08:08:39;10.03;;;3.50;;
51810;SDS011;52468;40.116;18.296;2023-05-16T08:11:07;17.77;;;3.43;;
51810;SDS011;52468;40.116;18.296;2023-05-16T08:13:35;9.03;;;2.70;;
51810;SDS011;52468;40.116;18.296;2023-05-16T08:16:02;10.30;;;2.90;;
51810;SDS011;52468;40.116;18.296;2023-05-16T08:18:31;9.43;;;4.10;;
51810;SDS011;52468;40.116;18.296;2023-05-16T08:20:59;10.80;;;3.37;;
51810;SDS011;52468;40.116;18.296;2023-05-16T08:23:26;11.87;;;2.63;;
51810;SDS011;52468;40.116;18.296;2023-05-16T08:25:54;7.47;;;2.10;;
51810;SDS011;52468;40.116;18.296;2023-05-16T08:28:22;6.93;;;2.30;;
51810;SDS011;52468;40.116;18.296;2023-05-16T08:30:50;8.17;;;3.17;;
51810;SDS011;52468;40.116;18.296;2023-05-16T08:33:18;10.20;;;3.33;;
51810;SDS011;52468;40.116;18.296;2023-05-16T08:35:46;7.17;;;1.80;;
51810;SDS011;52468;40.116;18.296;2023-05-16T08:38:15;9.40;;;4.20;;
51810;SDS011;52468;40.116;18.296;2023-05-16T08:40:43;8.77;;;4.17;;
51810;SDS011;52468;40.116;18.296;2023-05-16T08:43:11;10.50;;;2.77;;
51810;SDS011;52468;40.116;18.296;2023-05-16T08:45:40;13.80;;;2.60;;
51810;SDS011;52468;40.116;18.296;2023-05-16T08:48:08;9.33;;;2.47;;
51810;SDS011;52468;40.116;18.296;2023-05-16T08:50:37;11.90;;;2.40;;
51810;SDS011;52468;40.116;18.296;2023-05-16T08:53:06;11.07;;;2.60;;
51810;SDS011;52468;40.116;18.296;2023-05-16T08:55:36;11.93;;;2.67;;
51810;SDS011;52468;40.116;18.296;2023-05-16T08:58:04;8.03;;;3.10;;
51810;SDS011;52468;40.116;18.296;2023-05-16T09:00:33;9.33;;;2.63;;
51810;SDS011;52468;40.116;18.296;2023-05-16T09:03:04;10.10;;;3.53;;
51810;SDS011;52468;40.116;18.296;2023-05-16T09:05:32;9.63;;;2.20;;
51810;SDS011;52468;40.116;18.296;2023-05-16T09:08:01;5.30;;;2.80;;
51810;SDS011;52468;40.116;18.296;2023-05-16T09:10:29;9.70;;;2.67;;
51810;SDS011;52468;40.116;18.296;2023-05-16T09:12:57;9.17;;;2.43;;
51810;SDS011;52468;40.116;18.296;2023-05-16T09:15:30;8.30;;;2.50;;
51810;SDS011;52468;40.116;18.296;2023-05-16T09:17:59;9.07;;;2.87;;
51810;SDS011;52468;40.116;18.296;2023-05-16T09:20:29;11.73;;;2.73;;
51810;SDS011;52468;40.116;18.296;2023-05-16T09:22:57;6.63;;;2.80;;
51810;SDS011;52468;40.116;18.296;2023-05-16T09:25:28;7.20;;;2.67;;
51810;SDS011;52468;40.116;18.296;2023-05-16T09:27:58;6.70;;;1.97;;
51810;SDS011;52468;40.116;18.296;2023-05-16T09:30:28;10.80;;;2.50;;
51810;SDS011;52468;40.116;18.296;2023-05-16T09:32:58;11.77;;;2.27;;
51810;SDS011;52468;40.116;18.296;2023-05-16T09:35:26;7.77;;;1.70;;
51810;SDS011;52468;40.116;18.296;2023-05-16T09:37:57;4.87;;;2.10;;
51810;SDS011;52468;40.116;18.296;2023-05-16T09:40:25;6.13;;;2.23;;
51810;SDS011;52468;40.116;18.296;2023-05-16T09:43:03;4.00;;;2.03;;
51810;SDS011;52468;40.116;18.296;2023-05-16T09:45:32;7.47;;;1.90;;
51810;SDS011;52468;40.116;18.296;2023-05-16T09:48:05;5.23;;;2.43;;
51810;SDS011;52468;40.116;18.296;2023-05-16T09:50:34;7.55;;;1.95;;
51810;SDS011;52468;40.116;18.296;2023-05-16T09:53:03;8.13;;;1.73;;
51810;SDS011;52468;40.116;18.296;2023-05-16T09:55:31;11.30;;;2.90;;
51810;SDS011;52468;40.116;18.296;2023-05-16T09:57:59;9.20;;;2.77;;
51810;SDS011;52468;40.116;18.296;2023-05-16T10:00:28;8.90;;;3.30;;
51810;SDS011;52468;40.116;18.296;2023-05-16T10:02:58;7.63;;;2.00;;
51810;SDS011;52468;40.116;18.296;2023-05-16T10:05:29;8.07;;;2.40;;
51810;SDS011;52468;40.116;18.296;2023-05-16T10:07:58;10.20;;;3.07;;
51810;SDS011;52468;40.116;18.296;2023-05-16T10:10:30;10.73;;;2.70;;
51810;SDS011;52468;40.116;18.296;2023-05-16T10:13:04;7.47;;;1.93;;
51810;SDS011;52468;40.116;18.296;2023-05-16T10:15:35;12.53;;;3.37;;
51810;SDS011;52468;40.116;18.296;2023-05-16T10:18:03;5.80;;;2.17;;
51810;SDS011;52468;40.116;18.296;2023-05-16T10:20:38;4.43;;;1.63;;
51810;SDS011;52468;40.116;18.296;2023-05-16T10:23:09;3.60;;;1.10;;
51810;SDS011;52468;40.116;18.296;2023-05-16T10:25:43;3.17;;;1.87;;
51810;SDS011;52468;40.116;18.296;2023-05-16T10:28:12;7.97;;;1.90;;
51810;SDS011;52468;40.116;18.296;2023-05-16T10:30:45;2.60;;;1.37;;
51810;SDS011;52468;40.116;18.296;2023-05-16T10:33:14;2.47;;;1.47;;
51810;SDS011;52468;40.116;18.296;2023-05-16T10:35:43;6.07;;;1.10;;
51810;SDS011;52468;40.116;18.296;2023-05-16T10:38:16;2.67;;;1.00;;
51810;SDS011;52468;40.116;18.296;2023-05-16T10:40:46;3.03;;;1.00;;
51810;SDS011;52468;40.116;18.296;2023-05-16T10:43:24;5.93;;;2.10;;
51810;SDS011;52468;40.116;18.296;2023-05-16T10:45:54;3.93;;;0.90;;
51810;SDS011;52468;40.116;18.296;2023-05-16T10:48:30;4.00;;;0.73;;
51810;SDS011;52468;40.116;18.296;2023-05-16T10:50:59;4.57;;;0.77;;
51810;SDS011;52468;40.116;18.296;2023-05-16T10:53:32;2.65;;;0.90;;
51810;SDS011;52468;40.116;18.296;2023-05-16T10:56:07;1.00;;;0.90;;
51810;SDS011;52468;40.116;18.296;2023-05-16T11:01:23;5.60;;;0.90;;
51810;SDS011;52468;40.116;18.296;2023-05-16T11:04:01;1.63;;;1.23;;
51810;SDS011;52468;40.116;18.296;2023-05-16T11:19:47;1.80;;;1.03;;
51810;SDS011;52468;40.116;18.296;2023-05-16T11:25:01;5.00;;;1.10;;
51810;SDS011;52468;40.116;18.296;2023-05-16T11:32:33;3.93;;;1.50;;
51810;SDS011;52468;40.116;18.296;2023-05-16T11:35:03;6.00;;;2.17;;
51810;SDS011;52468;40.116;18.296;2023-05-16T11:37:31;4.70;;;2.57;;
51810;SDS011;52468;40.116;18.296;2023-05-16T11:40:00;3.73;;;1.37;;
51810;SDS011;52468;40.116;18.296;2023-05-16T11:42:30;4.57;;;2.50;;
51810;SDS011;52468;40.116;18.296;2023-05-16T11:45:07;5.23;;;1.40;;
51810;SDS011;52468;40.116;18.296;2023-05-16T11:47:42;7.27;;;1.97;;
51810;SDS011;52468;40.116;18.296;2023-05-16T11:50:15;6.57;;;2.03;;
51810;SDS011;52468;40.116;18.296;2023-05-16T11:52:48;5.00;;;1.63;;
51810;SDS011;52468;40.116;18.296;2023-05-16T11:55:20;6.47;;;2.00;;
51810;SDS011;52468;40.116;18.296;2023-05-16T11:57:56;7.50;;;2.37;;
51810;SDS011;52468;40.116;18.296;2023-05-16T12:00:25;7.83;;;2.30;;
51810;SDS011;52468;40.116;18.296;2023-05-16T12:02:54;4.77;;;1.80;;
51810;SDS011;52468;40.116;18.296;2023-05-16T12:05:27;4.57;;;2.13;;
51810;SDS011;52468;40.116;18.296;2023-05-16T12:07:57;8.27;;;2.93;;
51810;SDS011;52468;40.116;18.296;2023-05-16T12:10:25;7.57;;;1.90;;
51810;SDS011;52468;40.116;18.296;2023-05-16T12:12:53;10.30;;;2.40;;
51810;SDS011;52468;40.116;18.296;2023-05-16T12:15:22;8.33;;;2.00;;
51810;SDS011;52468;40.116;18.296;2023-05-16T12:17:50;10.13;;;3.00;;
51810;SDS011;52468;40.116;18.296;2023-05-16T12:20:18;10.73;;;2.87;;
51810;SDS011;52468;40.116;18.296;2023-05-16T12:22:46;7.70;;;2.10;;
51810;SDS011;52468;40.116;18.296;2023-05-16T12:25:19;12.97;;;1.80;;
51810;SDS011;52468;40.116;18.296;2023-05-16T12:27:53;4.27;;;1.80;;
51810;SDS011;52468;40.116;18.296;2023-05-16T12:30:22;6.67;;;1.67;;
51810;SDS011;52468;40.116;18.296;2023-05-16T13:04:52;3.97;;;0.90;;
51810;SDS011;52468;40.116;18.296;2023-05-16T13:07:21;2.22;;;1.23;;
51810;SDS011;52468;40.116;18.296;2023-05-16T13:09:49;4.70;;;1.73;;
51810;SDS011;52468;40.116;18.296;2023-05-16T13:12:17;1.38;;;0.95;;
51810;SDS011;52468;40.116;18.296;2023-05-16T13:14:45;3.83;;;1.25;;
51810;SDS011;52468;40.116;18.296;2023-05-16T13:17:13;4.18;;;1.38;;
51810;SDS011;52468;40.116;18.296;2023-05-16T13:19:41;5.90;;;1.80;;
51810;SDS011;52468;40.116;18.296;2023-05-16T13:22:09;9.55;;;1.67;;
51810;SDS011;52468;40.116;18.296;2023-05-16T13:24:38;3.65;;;1.00;;
51810;SDS011;52468;40.116;18.296;2023-05-16T13:27:06;2.75;;;0.80;;
51810;SDS011;52468;40.116;18.296;2023-05-16T13:29:34;4.78;;;1.85;;
51810;SDS011;52468;40.116;18.296;2023-05-16T13:32:02;2.95;;;0.93;;
51810;SDS011;52468;40.116;18.296;2023-05-16T13:34:30;2.40;;;1.20;;
51810;SDS011;52468;40.116;18.296;2023-05-16T13:36:58;3.00;;;1.05;;
51810;SDS011;52468;40.116;18.296;2023-05-16T13:39:26;1.33;;;0.82;;
51810;SDS011;52468;40.116;18.296;2023-05-16T13:41:54;6.45;;;1.30;;
51810;SDS011;52468;40.116;18.296;2023-05-16T13:44:22;4.05;;;1.45;;
51810;SDS011;52468;40.116;18.296;2023-05-16T13:46:50;4.20;;;1.30;;
51810;SDS011;52468;40.116;18.296;2023-05-16T13:49:18;2.85;;;1.50;;
51810;SDS011;52468;40.116;18.296;2023-05-16T13:51:46;1.85;;;1.20;;
51810;SDS011;52468;40.116;18.296;2023-05-16T13:54:14;3.47;;;1.25;;
51810;SDS011;52468;40.116;18.296;2023-05-16T13:56:43;2.95;;;1.23;;
51810;SDS011;52468;40.116;18.296;2023-05-16T13:59:11;5.60;;;1.63;;
51810;SDS011;52468;40.116;18.296;2023-05-16T14:01:41;4.40;;;1.88;;
51810;SDS011;52468;40.116;18.296;2023-05-16T14:04:09;5.13;;;1.90;;
51810;SDS011;52468;40.116;18.296;2023-05-16T14:06:38;3.40;;;1.42;;
51810;SDS011;52468;40.116;18.296;2023-05-16T14:09:06;5.15;;;1.67;;
51810;SDS011;52468;40.116;18.296;2023-05-16T14:11:34;7.68;;;1.92;;
51810;SDS011;52468;40.116;18.296;2023-05-16T14:14:02;4.13;;;1.92;;
51810;SDS011;52468;40.116;18.296;2023-05-16T14:16:29;5.05;;;1.75;;
51810;SDS011;52468;40.116;18.296;2023-05-16T14:18:59;2.97;;;1.85;;
51810;SDS011;52468;40.116;18.296;2023-05-16T14:21:27;3.78;;;1.90;;
51810;SDS011;52468;40.116;18.296;2023-05-16T14:23:55;5.18;;;1.20;;
51810;SDS011;52468;40.116;18.296;2023-05-16T14:26:23;3.35;;;2.25;;
51810;SDS011;52468;40.116;18.296;2023-05-16T14:28:51;2.20;;;1.20;;
51810;SDS011;52468;40.116;18.296;2023-05-16T14:31:19;6.63;;;1.67;;
51810;SDS011;52468;40.116;18.296;2023-05-16T14:33:47;5.13;;;1.70;;
51810;SDS011;52468;40.116;18.296;2023-05-16T14:36:18;6.05;;;2.50;;
51810;SDS011;52468;40.116;18.296;2023-05-16T14:38:46;4.82;;;2.00;;
51810;SDS011;52468;40.116;18.296;2023-05-16T14:41:15;7.97;;;1.40;;
51810;SDS011;52468;40.116;18.296;2023-05-16T14:43:46;3.30;;;1.65;;
51810;SDS011;52468;40.116;18.296;2023-05-16T14:46:14;4.50;;;2.20;;
51810;SDS011;52468;40.116;18.296;2023-05-16T14:48:42;9.57;;;1.63;;
51810;SDS011;52468;40.116;18.296;2023-05-16T14:51:09;7.07;;;1.95;;
51810;SDS011;52468;40.116;18.296;2023-05-16T14:53:38;5.45;;;1.63;;
51810;SDS011;52468;40.116;18.296;2023-05-16T14:56:05;2.17;;;1.25;;
51810;SDS011;52468;40.116;18.296;2023-05-16T14:58:33;4.40;;;1.63;;
51810;SDS011;52468;40.116;18.296;2023-05-16T15:01:01;5.63;;;2.08;;
51810;SDS011;52468;40.116;18.296;2023-05-16T15:03:30;5.15;;;2.53;;
51810;SDS011;52468;40.116;18.296;2023-05-16T15:06:01;4.05;;;1.45;;
51810;SDS011;52468;40.116;18.296;2023-05-16T15:08:33;6.50;;;1.75;;
51810;SDS011;52468;40.116;18.296;2023-05-16T15:11:01;5.45;;;1.70;;
51810;SDS011;52468;40.116;18.296;2023-05-16T15:13:29;8.65;;;2.90;;
51810;SDS011;52468;40.116;18.296;2023-05-16T15:15:57;7.32;;;1.80;;
51810;SDS011;52468;40.116;18.296;2023-05-16T15:18:25;2.55;;;1.15;;
51810;SDS011;52468;40.116;18.296;2023-05-16T15:20:53;3.67;;;1.77;;
51810;SDS011;52468;40.116;18.296;2023-05-16T15:23:21;3.97;;;1.98;;
51810;SDS011;52468;40.116;18.296;2023-05-16T15:25:49;7.22;;;2.10;;
51810;SDS011;52468;40.116;18.296;2023-05-16T15:28:18;4.57;;;1.55;;
51810;SDS011;52468;40.116;18.296;2023-05-16T15:30:47;7.85;;;1.50;;
51810;SDS011;52468;40.116;18.296;2023-05-16T15:33:16;3.35;;;1.60;;
51810;SDS011;52468;40.116;18.296;2023-05-16T15:35:44;5.60;;;2.38;;
51810;SDS011;52468;40.116;18.296;2023-05-16T15:38:12;6.63;;;1.52;;
51810;SDS011;52468;40.116;18.296;2023-05-16T15:40:40;4.43;;;1.58;;